sensor_id;sensor_type;location;lat;lon;timestamp;temperature;humidity
2523;DHT22;1272;53.332;9.860;2023-04-25T00:00:28;8.00;99.90
2523;DHT22;1272;53.332;9.860;2023-04-25T00:02:54;7.90;99.90
2523;DHT22;1272;53.332;9.860;2023-04-25T00:05:22;8.00;99.90
2523;DHT22;1272;53.332;9.860;2023-04-25T00:07:49;8.00;99.90
2523;DHT22;1272;53.332;9.860;2023-04-25T00:10:15;7.90;99.90
2523;DHT22;1272;53.332;9.860;2023-04-25T00:12:41;7.90;99.90
2523;DHT22;1272;53.332;9.860;2023-04-25T00:15:07;7.80;99.90
2523;DHT22;1272;53.332;9.860;2023-04-25T00:17:33;7.80;99.90
2523;DHT22;1272;53.332;9.860;2023-04-25T00:20:00;7.80;99.90
2523;DHT22;1272;53.332;9.860;2023-04-25T00:22:26;7.80;99.90
2523;DHT22;1272;53.332;9.860;2023-04-25T00:24:52;7.90;99.90
2523;DHT22;1272;53.332;9.860;2023-04-25T00:27:18;7.70;99.90
2523;DHT22;1272;53.332;9.860;2023-04-25T00:29:44;7.70;99.90
2523;DHT22;1272;53.332;9.860;2023-04-25T00:32:10;7.70;99.90
2523;DHT22;1272;53.332;9.860;2023-04-25T00:34:36;7.70;99.90
2523;DHT22;1272;53.332;9.860;2023-04-25T00:37:01;7.60;99.90
2523;DHT22;1272;53.332;9.860;2023-04-25T00:39:27;7.60;99.90
2523;DHT22;1272;53.332;9.860;2023-04-25T00:41:54;7.60;99.90
2523;DHT22;1272;53.332;9.860;2023-04-25T00:44:20;7.50;99.90
2523;DHT22;1272;53.332;9.860;2023-04-25T00:46:47;7.60;99.90
2523;DHT22;1272;53.332;9.860;2023-04-25T00:49:15;7.50;99.90
2523;DHT22;1272;53.332;9.860;2023-04-25T00:51:42;7.50;99.90
2523;DHT22;1272;53.332;9.860;2023-04-25T00:54:10;7.50;99.90
2523;DHT22;1272;53.332;9.860;2023-04-25T00:56:36;7.50;99.90
2523;DHT22;1272;53.332;9.860;2023-04-25T00:59:01;7.50;99.90
2523;DHT22;1272;53.332;9.860;2023-04-25T01:01:27;7.50;99.90
2523;DHT22;1272;53.332;9.860;2023-04-25T01:03:53;7.50;99.90
2523;DHT22;1272;53.332;9.860;2023-04-25T01:06:19;7.50;99.90
2523;DHT22;1272;53.332;9.860;2023-04-25T01:08:45;7.50;99.90
2523;DHT22;1272;53.332;9.860;2023-04-25T01:11:11;7.50;99.90
2523;DHT22;1272;53.332;9.860;2023-04-25T01:13:36;7.50;99.90
2523;DHT22;1272;53.332;9.860;2023-04-25T01:16:02;7.40;99.90
2523;DHT22;1272;53.332;9.860;2023-04-25T01:18:28;7.50;99.90
2523;DHT22;1272;53.332;9.860;2023-04-25T01:20:54;7.40;99.90
2523;DHT22;1272;53.332;9.860;2023-04-25T01:23:21;7.40;99.90
2523;DHT22;1272;53.332;9.860;2023-04-25T01:25:48;7.40;99.90
2523;DHT22;1272;53.332;9.860;2023-04-25T01:28:15;7.40;99.90
2523;DHT22;1272;53.332;9.860;2023-04-25T01:30:56;7.30;99.90
2523;DHT22;1272;53.332;9.860;2023-04-25T01:33:23;7.30;99.90
2523;DHT22;1272;53.332;9.860;2023-04-25T01:35:48;7.30;99.90
2523;DHT22;1272;53.332;9.860;2023-04-25T01:38:14;7.40;99.90
2523;DHT22;1272;53.332;9.860;2023-04-25T01:40:40;7.40;99.90
2523;DHT22;1272;53.332;9.860;2023-04-25T01:43:07;7.30;99.90
2523;DHT22;1272;53.332;9.860;2023-04-25T01:45:37;7.20;99.90
2523;DHT22;1272;53.332;9.860;2023-04-25T01:48:05;7.20;99.90
2523;DHT22;1272;53.332;9.860;2023-04-25T01:50:31;7.20;99.90
2523;DHT22;1272;53.332;9.860;2023-04-25T01:52:57;7.20;99.90
2523;DHT22;1272;53.332;9.860;2023-04-25T01:55:22;7.20;99.90
2523;DHT22;1272;53.332;9.860;2023-04-25T01:57:48;7.20;99.90
2523;DHT22;1272;53.332;9.860;2023-04-25T02:00:14;7.10;99.90
2523;DHT22;1272;53.332;9.860;2023-04-25T02:02:40;7.20;99.90
2523;DHT22;1272;53.332;9.860;2023-04-25T02:05:06;7.10;99.90
2523;DHT22;1272;53.332;9.860;2023-04-25T02:07:32;7.10;99.90
2523;DHT22;1272;53.332;9.860;2023-04-25T02:13:20;7.00;99.90
2523;DHT22;1272;53.332;9.860;2023-04-25T02:15:45;7.00;99.90
2523;DHT22;1272;53.332;9.860;2023-04-25T02:18:11;7.00;99.90
2523;DHT22;1272;53.332;9.860;2023-04-25T02:20:37;7.00;99.90
2523;DHT22;1272;53.332;9.860;2023-04-25T02:23:03;7.00;99.90
2523;DHT22;1272;53.332;9.860;2023-04-25T02:25:29;7.00;99.90
2523;DHT22;1272;53.332;9.860;2023-04-25T02:27:54;7.00;99.90
2523;DHT22;1272;53.332;9.860;2023-04-25T02:30:20;7.00;99.90
2523;DHT22;1272;53.332;9.860;2023-04-25T02:32:46;7.00;99.90
2523;DHT22;1272;53.332;9.860;2023-04-25T02:35:12;6.90;99.90
2523;DHT22;1272;53.332;9.860;2023-04-25T02:37:39;6.90;99.90
2523;DHT22;1272;53.332;9.860;2023-04-25T02:40:06;6.90;99.90
2523;DHT22;1272;53.332;9.860;2023-04-25T02:42:32;6.90;99.90
2523;DHT22;1272;53.332;9.860;2023-04-25T02:44:58;6.80;99.90
2523;DHT22;1272;53.332;9.860;2023-04-25T02:47:24;6.80;99.90
2523;DHT22;1272;53.332;9.860;2023-04-25T02:49:49;6.80;99.90
2523;DHT22;1272;53.332;9.860;2023-04-25T02:52:15;6.80;99.90
2523;DHT22;1272;53.332;9.860;2023-04-25T02:54:41;6.70;99.90
2523;DHT22;1272;53.332;9.860;2023-04-25T02:57:07;6.80;99.90
2523;DHT22;1272;53.332;9.860;2023-04-25T02:59:33;6.80;99.90
2523;DHT22;1272;53.332;9.860;2023-04-25T03:01:59;6.80;99.90
2523;DHT22;1272;53.332;9.860;2023-04-25T03:04:24;6.80;99.90
2523;DHT22;1272;53.332;9.860;2023-04-25T03:06:51;6.70;99.90
2523;DHT22;1272;53.332;9.860;2023-04-25T03:09:17;6.70;99.90
2523;DHT22;1272;53.332;9.860;2023-04-25T03:11:44;6.60;99.90
2523;DHT22;1272;53.332;9.860;2023-04-25T03:14:10;6.50;99.90
2523;DHT22;1272;53.332;9.860;2023-04-25T03:16:36;6.50;99.90
2523;DHT22;1272;53.332;9.860;2023-04-25T03:19:02;6.50;99.90
2523;DHT22;1272;53.332;9.860;2023-04-25T03:21:28;6.50;99.90
2523;DHT22;1272;53.332;9.860;2023-04-25T03:23:54;6.50;99.90
2523;DHT22;1272;53.332;9.860;2023-04-25T03:26:19;6.40;99.90
2523;DHT22;1272;53.332;9.860;2023-04-25T03:28:46;6.40;99.90
2523;DHT22;1272;53.332;9.860;2023-04-25T03:31:11;6.30;99.90
2523;DHT22;1272;53.332;9.860;2023-04-25T03:33:37;6.20;99.90
2523;DHT22;1272;53.332;9.860;2023-04-25T03:36:03;6.10;99.90
2523;DHT22;1272;53.332;9.860;2023-04-25T03:38:29;6.10;99.90
2523;DHT22;1272;53.332;9.860;2023-04-25T03:40:54;6.10;99.90
2523;DHT22;1272;53.332;9.860;2023-04-25T03:43:21;6.10;99.90
2523;DHT22;1272;53.332;9.860;2023-04-25T03:45:47;6.00;99.90
2523;DHT22;1272;53.332;9.860;2023-04-25T03:48:13;6.00;99.90
2523;DHT22;1272;53.332;9.860;2023-04-25T03:50:38;6.00;99.90
2523;DHT22;1272;53.332;9.860;2023-04-25T03:53:07;6.00;99.90
2523;DHT22;1272;53.332;9.860;2023-04-25T03:55:33;6.00;99.90
2523;DHT22;1272;53.332;9.860;2023-04-25T03:57:59;6.00;99.90
2523;DHT22;1272;53.332;9.860;2023-04-25T04:00:25;6.10;99.90
2523;DHT22;1272;53.332;9.860;2023-04-25T04:02:51;5.90;99.90
2523;DHT22;1272;53.332;9.860;2023-04-25T04:05:16;5.90;99.90
2523;DHT22;1272;53.332;9.860;2023-04-25T04:07:42;5.80;99.90
2523;DHT22;1272;53.332;9.860;2023-04-25T04:10:09;5.80;99.90
2523;DHT22;1272;53.332;9.860;2023-04-25T04:12:35;5.80;99.90
2523;DHT22;1272;53.332;9.860;2023-04-25T04:15:03;5.80;99.90
2523;DHT22;1272;53.332;9.860;2023-04-25T04:17:29;5.70;99.90
2523;DHT22;1272;53.332;9.860;2023-04-25T04:19:55;5.70;99.90
2523;DHT22;1272;53.332;9.860;2023-04-25T04:22:22;5.70;99.90
2523;DHT22;1272;53.332;9.860;2023-04-25T04:24:48;5.80;99.90
2523;DHT22;1272;53.332;9.860;2023-04-25T04:27:16;5.80;99.90
2523;DHT22;1272;53.332;9.860;2023-04-25T04:29:43;5.90;99.90
2523;DHT22;1272;53.332;9.860;2023-04-25T04:32:09;6.00;99.90
2523;DHT22;1272;53.332;9.860;2023-04-25T04:34:35;5.90;99.90
2523;DHT22;1272;53.332;9.860;2023-04-25T04:37:01;6.00;99.90
2523;DHT22;1272;53.332;9.860;2023-04-25T04:39:27;6.00;99.90
2523;DHT22;1272;53.332;9.860;2023-04-25T04:41:52;6.00;99.90
2523;DHT22;1272;53.332;9.860;2023-04-25T04:44:18;6.00;99.90
2523;DHT22;1272;53.332;9.860;2023-04-25T04:46:45;6.00;99.90
2523;DHT22;1272;53.332;9.860;2023-04-25T04:49:12;6.00;99.90
2523;DHT22;1272;53.332;9.860;2023-04-25T04:51:39;6.00;99.90
2523;DHT22;1272;53.332;9.860;2023-04-25T04:54:06;5.90;99.90
2523;DHT22;1272;53.332;9.860;2023-04-25T04:56:32;6.10;99.90
2523;DHT22;1272;53.332;9.860;2023-04-25T04:58:58;6.10;99.90
2523;DHT22;1272;53.332;9.860;2023-04-25T05:01:24;6.10;99.90
2523;DHT22;1272;53.332;9.860;2023-04-25T05:03:50;6.10;99.90
2523;DHT22;1272;53.332;9.860;2023-04-25T05:06:18;6.20;99.90
2523;DHT22;1272;53.332;9.860;2023-04-25T05:08:44;6.20;99.90
2523;DHT22;1272;53.332;9.860;2023-04-25T05:11:09;6.20;99.90
2523;DHT22;1272;53.332;9.860;2023-04-25T05:13:35;6.10;99.90
2523;DHT22;1272;53.332;9.860;2023-04-25T05:16:01;6.10;99.90
2523;DHT22;1272;53.332;9.860;2023-04-25T05:18:26;6.10;99.90
2523;DHT22;1272;53.332;9.860;2023-04-25T05:20:55;6.10;99.90
2523;DHT22;1272;53.332;9.860;2023-04-25T05:23:21;6.10;99.90
2523;DHT22;1272;53.332;9.860;2023-04-25T05:25:46;6.00;99.90
2523;DHT22;1272;53.332;9.860;2023-04-25T05:28:13;6.00;99.90
2523;DHT22;1272;53.332;9.860;2023-04-25T05:30:39;6.10;99.90
2523;DHT22;1272;53.332;9.860;2023-04-25T05:33:05;6.10;99.20
2523;DHT22;1272;53.332;9.860;2023-04-25T05:35:31;6.20;65.10
2523;DHT22;1272;53.332;9.860;2023-04-25T05:37:56;6.10;34.10
2523;DHT22;1272;53.332;9.860;2023-04-25T05:40:22;6.10;88.70
2523;DHT22;1272;53.332;9.860;2023-04-25T05:42:48;6.00;90.40
2523;DHT22;1272;53.332;9.860;2023-04-25T05:45:13;6.00;97.60
2523;DHT22;1272;53.332;9.860;2023-04-25T05:47:39;6.00;93.00
2523;DHT22;1272;53.332;9.860;2023-04-25T05:50:05;6.00;91.00
2523;DHT22;1272;53.332;9.860;2023-04-25T05:52:31;6.10;49.70
2523;DHT22;1272;53.332;9.860;2023-04-25T05:54:57;6.10;48.70
2523;DHT22;1272;53.332;9.860;2023-04-25T05:57:24;6.10;50.20
2523;DHT22;1272;53.332;9.860;2023-04-25T05:59:50;6.10;49.60
2523;DHT22;1272;53.332;9.860;2023-04-25T06:02:16;6.00;81.50
2523;DHT22;1272;53.332;9.860;2023-04-25T06:04:42;6.10;24.70
2523;DHT22;1272;53.332;9.860;2023-04-25T06:07:08;6.20;1.00
2523;DHT22;1272;53.332;9.860;2023-04-25T06:09:34;6.20;33.10
2523;DHT22;1272;53.332;9.860;2023-04-25T06:12:00;6.10;34.40
2523;DHT22;1272;53.332;9.860;2023-04-25T06:14:26;6.10;39.00
2523;DHT22;1272;53.332;9.860;2023-04-25T06:16:54;6.10;33.50
2523;DHT22;1272;53.332;9.860;2023-04-25T06:19:20;6.30;5.90
2523;DHT22;1272;53.332;9.860;2023-04-25T06:21:46;6.20;19.60
2523;DHT22;1272;53.332;9.860;2023-04-25T06:24:11;6.20;47.90
2523;DHT22;1272;53.332;9.860;2023-04-25T06:26:37;6.40;1.00
2523;DHT22;1272;53.332;9.860;2023-04-25T06:29:03;6.40;1.00
2523;DHT22;1272;53.332;9.860;2023-04-25T06:31:28;6.30;1.00
2523;DHT22;1272;53.332;9.860;2023-04-25T06:33:54;6.20;1.00
2523;DHT22;1272;53.332;9.860;2023-04-25T06:36:23;6.20;43.40
2523;DHT22;1272;53.332;9.860;2023-04-25T06:38:53;6.30;68.80
2523;DHT22;1272;53.332;9.860;2023-04-25T06:41:20;6.30;27.50
2523;DHT22;1272;53.332;9.860;2023-04-25T06:43:46;6.40;61.50
2523;DHT22;1272;53.332;9.860;2023-04-25T06:46:12;6.40;30.00
2523;DHT22;1272;53.332;9.860;2023-04-25T06:48:37;6.40;16.10
2523;DHT22;1272;53.332;9.860;2023-04-25T06:51:03;6.40;47.80
2523;DHT22;1272;53.332;9.860;2023-04-25T06:53:29;6.50;33.40
2523;DHT22;1272;53.332;9.860;2023-04-25T06:55:55;6.60;16.00
2523;DHT22;1272;53.332;9.860;2023-04-25T06:58:20;6.60;22.40
2523;DHT22;1272;53.332;9.860;2023-04-25T07:00:46;6.60;1.00
2523;DHT22;1272;53.332;9.860;2023-04-25T07:03:12;6.60;1.00
2523;DHT22;1272;53.332;9.860;2023-04-25T07:05:37;6.60;1.00
2523;DHT22;1272;53.332;9.860;2023-04-25T07:08:03;6.60;1.00
2523;DHT22;1272;53.332;9.860;2023-04-25T07:10:29;6.70;1.00
2523;DHT22;1272;53.332;9.860;2023-04-25T07:12:55;6.70;1.00
2523;DHT22;1272;53.332;9.860;2023-04-25T07:15:20;6.80;1.00
2523;DHT22;1272;53.332;9.860;2023-04-25T07:17:46;6.70;1.00
2523;DHT22;1272;53.332;9.860;2023-04-25T07:20:12;6.80;1.00
2523;DHT22;1272;53.332;9.860;2023-04-25T07:22:38;6.80;1.00
2523;DHT22;1272;53.332;9.860;2023-04-25T07:25:04;6.80;1.00
2523;DHT22;1272;53.332;9.860;2023-04-25T07:27:30;6.80;1.00
2523;DHT22;1272;53.332;9.860;2023-04-25T07:29:56;6.90;1.00
2523;DHT22;1272;53.332;9.860;2023-04-25T07:32:22;6.90;1.00
2523;DHT22;1272;53.332;9.860;2023-04-25T07:34:48;7.00;1.00
2523;DHT22;1272;53.332;9.860;2023-04-25T07:37:14;7.10;1.00
2523;DHT22;1272;53.332;9.860;2023-04-25T07:39:40;7.20;2.10
2523;DHT22;1272;53.332;9.860;2023-04-25T07:42:05;7.30;1.00
2523;DHT22;1272;53.332;9.860;2023-04-25T07:44:34;7.40;15.90
2523;DHT22;1272;53.332;9.860;2023-04-25T07:47:07;7.40;49.60
2523;DHT22;1272;53.332;9.860;2023-04-25T07:49:36;7.40;99.90
2523;DHT22;1272;53.332;9.860;2023-04-25T07:52:03;7.30;99.90
2523;DHT22;1272;53.332;9.860;2023-04-25T07:54:29;7.30;99.90
2523;DHT22;1272;53.332;9.860;2023-04-25T07:56:55;7.30;99.90
2523;DHT22;1272;53.332;9.860;2023-04-25T07:59:21;7.40;99.90
2523;DHT22;1272;53.332;9.860;2023-04-25T08:01:47;7.40;99.90
2523;DHT22;1272;53.332;9.860;2023-04-25T08:04:13;7.40;99.90
2523;DHT22;1272;53.332;9.860;2023-04-25T08:06:39;7.40;99.90
2523;DHT22;1272;53.332;9.860;2023-04-25T08:09:06;7.50;99.90
2523;DHT22;1272;53.332;9.860;2023-04-25T08:11:31;7.50;99.90
2523;DHT22;1272;53.332;9.860;2023-04-25T08:13:57;7.50;99.90
2523;DHT22;1272;53.332;9.860;2023-04-25T08:16:23;7.60;1.00
2523;DHT22;1272;53.332;9.860;2023-04-25T08:18:50;7.60;1.00
2523;DHT22;1272;53.332;9.860;2023-04-25T08:21:15;7.50;1.00
2523;DHT22;1272;53.332;9.860;2023-04-25T08:23:41;7.60;99.90
2523;DHT22;1272;53.332;9.860;2023-04-25T08:26:07;7.60;99.90
2523;DHT22;1272;53.332;9.860;2023-04-25T08:28:33;7.60;99.90
2523;DHT22;1272;53.332;9.860;2023-04-25T08:30:59;7.70;99.90
2523;DHT22;1272;53.332;9.860;2023-04-25T08:33:25;8.00;99.90
2523;DHT22;1272;53.332;9.860;2023-04-25T08:35:50;8.00;1.00
2523;DHT22;1272;53.332;9.860;2023-04-25T08:38:17;8.10;1.00
2523;DHT22;1272;53.332;9.860;2023-04-25T08:40:43;8.20;1.00
2523;DHT22;1272;53.332;9.860;2023-04-25T08:43:09;8.20;99.90
2523;DHT22;1272;53.332;9.860;2023-04-25T08:45:40;8.00;99.90
2523;DHT22;1272;53.332;9.860;2023-04-25T08:48:11;8.00;99.90
2523;DHT22;1272;53.332;9.860;2023-04-25T08:50:51;7.80;10.40
2523;DHT22;1272;53.332;9.860;2023-04-25T08:53:22;7.80;89.00
2523;DHT22;1272;53.332;9.860;2023-04-25T08:55:50;7.70;99.90
2523;DHT22;1272;53.332;9.860;2023-04-25T08:58:18;7.70;99.90
2523;DHT22;1272;53.332;9.860;2023-04-25T09:00:46;7.70;1.00
2523;DHT22;1272;53.332;9.860;2023-04-25T09:03:12;7.90;99.90
2523;DHT22;1272;53.332;9.860;2023-04-25T09:05:40;8.00;99.90
2523;DHT22;1272;53.332;9.860;2023-04-25T09:08:06;8.00;99.90
2523;DHT22;1272;53.332;9.860;2023-04-25T09:10:32;8.10;99.90
2523;DHT22;1272;53.332;9.860;2023-04-25T09:13:14;8.10;99.90
2523;DHT22;1272;53.332;9.860;2023-04-25T09:15:48;8.20;99.90
2523;DHT22;1272;53.332;9.860;2023-04-25T09:18:22;8.20;99.90
2523;DHT22;1272;53.332;9.860;2023-04-25T09:20:48;8.20;99.90
2523;DHT22;1272;53.332;9.860;2023-04-25T09:23:14;8.30;99.90
2523;DHT22;1272;53.332;9.860;2023-04-25T09:25:40;8.40;1.00
2523;DHT22;1272;53.332;9.860;2023-04-25T09:28:08;8.60;99.90
2523;DHT22;1272;53.332;9.860;2023-04-25T09:30:35;8.60;99.90
2523;DHT22;1272;53.332;9.860;2023-04-25T09:33:07;8.60;1.00
2523;DHT22;1272;53.332;9.860;2023-04-25T09:35:42;8.50;99.90
2523;DHT22;1272;53.332;9.860;2023-04-25T09:38:18;8.10;99.90
2523;DHT22;1272;53.332;9.860;2023-04-25T09:40:45;8.00;11.90
2523;DHT22;1272;53.332;9.860;2023-04-25T09:43:22;7.80;1.00
2523;DHT22;1272;53.332;9.860;2023-04-25T09:45:48;7.70;99.90
2523;DHT22;1272;53.332;9.860;2023-04-25T09:48:21;7.70;1.00
2523;DHT22;1272;53.332;9.860;2023-04-25T09:51:11;7.60;47.10
2523;DHT22;1272;53.332;9.860;2023-04-25T09:53:41;7.40;1.00
2523;DHT22;1272;53.332;9.860;2023-04-25T09:56:08;7.20;26.40
2523;DHT22;1272;53.332;9.860;2023-04-25T09:58:35;7.00;1.00
2523;DHT22;1272;53.332;9.860;2023-04-25T10:01:04;7.00;99.90
2523;DHT22;1272;53.332;9.860;2023-04-25T10:03:32;7.10;1.00
2523;DHT22;1272;53.332;9.860;2023-04-25T10:06:03;7.20;99.90
2523;DHT22;1272;53.332;9.860;2023-04-25T10:08:35;7.30;99.90
2523;DHT22;1272;53.332;9.860;2023-04-25T10:11:03;7.60;1.00
2523;DHT22;1272;53.332;9.860;2023-04-25T10:13:30;7.90;99.90
2523;DHT22;1272;53.332;9.860;2023-04-25T10:15:58;8.20;99.90
2523;DHT22;1272;53.332;9.860;2023-04-25T10:18:25;8.30;14.50
2523;DHT22;1272;53.332;9.860;2023-04-25T10:20:58;8.40;1.00
2523;DHT22;1272;53.332;9.860;2023-04-25T10:23:25;8.30;1.00
2523;DHT22;1272;53.332;9.860;2023-04-25T10:25:52;8.20;1.00
2523;DHT22;1272;53.332;9.860;2023-04-25T10:28:18;8.40;99.90
2523;DHT22;1272;53.332;9.860;2023-04-25T10:31:09;8.80;1.00
2523;DHT22;1272;53.332;9.860;2023-04-25T10:33:41;9.10;99.90
2523;DHT22;1272;53.332;9.860;2023-04-25T10:36:30;9.40;99.90
2523;DHT22;1272;53.332;9.860;2023-04-25T10:38:58;9.50;1.00
2523;DHT22;1272;53.332;9.860;2023-04-25T10:41:32;9.60;99.90
2523;DHT22;1272;53.332;9.860;2023-04-25T10:44:10;9.80;99.90
2523;DHT22;1272;53.332;9.860;2023-04-25T10:46:36;10.10;99.90
2523;DHT22;1272;53.332;9.860;2023-04-25T10:49:02;10.60;1.00
2523;DHT22;1272;53.332;9.860;2023-04-25T10:51:31;11.00;1.00
2523;DHT22;1272;53.332;9.860;2023-04-25T10:54:01;10.90;1.00
2523;DHT22;1272;53.332;9.860;2023-04-25T10:56:38;10.50;1.00
2523;DHT22;1272;53.332;9.860;2023-04-25T10:59:13;10.00;1.00
2523;DHT22;1272;53.332;9.860;2023-04-25T11:01:44;9.40;99.90
2523;DHT22;1272;53.332;9.860;2023-04-25T11:04:29;9.00;99.90
2523;DHT22;1272;53.332;9.860;2023-04-25T11:09:39;8.70;45.60
2523;DHT22;1272;53.332;9.860;2023-04-25T11:12:07;8.40;99.90
2523;DHT22;1272;53.332;9.860;2023-04-25T11:14:33;8.00;99.90
2523;DHT22;1272;53.332;9.860;2023-04-25T11:17:00;7.70;93.10
2523;DHT22;1272;53.332;9.860;2023-04-25T11:19:28;7.70;1.00
2523;DHT22;1272;53.332;9.860;2023-04-25T11:22:01;7.80;99.90
2523;DHT22;1272;53.332;9.860;2023-04-25T11:24:31;8.10;99.90
2523;DHT22;1272;53.332;9.860;2023-04-25T11:27:01;8.30;99.90
2523;DHT22;1272;53.332;9.860;2023-04-25T11:29:32;8.60;99.90
2523;DHT22;1272;53.332;9.860;2023-04-25T11:31:59;8.80;99.90
2523;DHT22;1272;53.332;9.860;2023-04-25T11:34:28;9.00;99.90
2523;DHT22;1272;53.332;9.860;2023-04-25T11:36:58;9.20;1.00
2523;DHT22;1272;53.332;9.860;2023-04-25T11:39:25;9.40;1.00
2523;DHT22;1272;53.332;9.860;2023-04-25T11:41:52;9.60;99.90
2523;DHT22;1272;53.332;9.860;2023-04-25T11:44:19;9.80;99.90
2523;DHT22;1272;53.332;9.860;2023-04-25T11:46:45;10.00;17.90
2523;DHT22;1272;53.332;9.860;2023-04-25T11:49:11;10.30;53.70
2523;DHT22;1272;53.332;9.860;2023-04-25T11:51:42;10.30;1.00
2523;DHT22;1272;53.332;9.860;2023-04-25T11:54:08;10.20;1.00
2523;DHT22;1272;53.332;9.860;2023-04-25T11:56:34;10.30;1.00
2523;DHT22;1272;53.332;9.860;2023-04-25T11:59:04;10.30;1.00
2523;DHT22;1272;53.332;9.860;2023-04-25T12:01:32;10.50;1.00
2523;DHT22;1272;53.332;9.860;2023-04-25T12:04:10;10.90;1.00
2523;DHT22;1272;53.332;9.860;2023-04-25T12:06:39;11.20;99.90
2523;DHT22;1272;53.332;9.860;2023-04-25T12:09:11;11.00;99.90
2523;DHT22;1272;53.332;9.860;2023-04-25T12:11:48;10.70;99.90
2523;DHT22;1272;53.332;9.860;2023-04-25T12:14:28;10.50;99.90
2523;DHT22;1272;53.332;9.860;2023-04-25T12:16:58;10.30;99.90
2523;DHT22;1272;53.332;9.860;2023-04-25T12:19:25;10.00;99.90
2523;DHT22;1272;53.332;9.860;2023-04-25T12:21:51;10.00;99.90
2523;DHT22;1272;53.332;9.860;2023-04-25T12:24:22;10.00;99.90
2523;DHT22;1272;53.332;9.860;2023-04-25T12:27:03;10.10;1.00
2523;DHT22;1272;53.332;9.860;2023-04-25T12:29:31;10.40;1.00
2523;DHT22;1272;53.332;9.860;2023-04-25T12:31:57;10.90;99.90
2523;DHT22;1272;53.332;9.860;2023-04-25T12:34:23;11.20;99.90
2523;DHT22;1272;53.332;9.860;2023-04-25T12:36:50;11.50;99.90
2523;DHT22;1272;53.332;9.860;2023-04-25T12:39:17;11.60;99.90
2523;DHT22;1272;53.332;9.860;2023-04-25T12:41:44;11.50;99.90
2523;DHT22;1272;53.332;9.860;2023-04-25T12:44:10;11.30;99.90
2523;DHT22;1272;53.332;9.860;2023-04-25T12:46:36;10.70;99.90
2523;DHT22;1272;53.332;9.860;2023-04-25T12:49:03;10.20;1.00
2523;DHT22;1272;53.332;9.860;2023-04-25T12:51:29;9.80;1.00
2523;DHT22;1272;53.332;9.860;2023-04-25T12:53:55;9.60;1.00
2523;DHT22;1272;53.332;9.860;2023-04-25T12:56:21;9.60;1.00
2523;DHT22;1272;53.332;9.860;2023-04-25T12:58:46;9.70;1.00
2523;DHT22;1272;53.332;9.860;2023-04-25T13:01:14;9.60;1.00
2523;DHT22;1272;53.332;9.860;2023-04-25T13:03:40;9.60;1.00
2523;DHT22;1272;53.332;9.860;2023-04-25T13:06:07;9.70;1.00
2523;DHT22;1272;53.332;9.860;2023-04-25T13:08:32;9.80;1.00
2523;DHT22;1272;53.332;9.860;2023-04-25T13:10:58;10.10;1.00
2523;DHT22;1272;53.332;9.860;2023-04-25T13:13:24;10.00;99.90
2523;DHT22;1272;53.332;9.860;2023-04-25T13:15:50;10.00;99.90
2523;DHT22;1272;53.332;9.860;2023-04-25T13:18:15;10.30;1.00
2523;DHT22;1272;53.332;9.860;2023-04-25T13:20:41;10.60;99.90
2523;DHT22;1272;53.332;9.860;2023-04-25T13:23:07;10.80;99.90
2523;DHT22;1272;53.332;9.860;2023-04-25T13:25:32;11.10;99.90
2523;DHT22;1272;53.332;9.860;2023-04-25T13:27:58;11.50;99.90
2523;DHT22;1272;53.332;9.860;2023-04-25T13:30:24;11.90;99.90
2523;DHT22;1272;53.332;9.860;2023-04-25T13:32:49;12.40;69.70
2523;DHT22;1272;53.332;9.860;2023-04-25T13:35:16;12.30;24.70
2523;DHT22;1272;53.332;9.860;2023-04-25T13:37:42;11.90;26.20
2523;DHT22;1272;53.332;9.860;2023-04-25T13:40:09;12.10;99.90
2523;DHT22;1272;53.332;9.860;2023-04-25T13:42:37;12.50;99.90
2523;DHT22;1272;53.332;9.860;2023-04-25T13:45:04;12.50;41.40
2523;DHT22;1272;53.332;9.860;2023-04-25T13:47:29;12.20;19.30
2523;DHT22;1272;53.332;9.860;2023-04-25T13:49:56;11.90;28.20
2523;DHT22;1272;53.332;9.860;2023-04-25T13:52:22;11.60;99.90
2523;DHT22;1272;53.332;9.860;2023-04-25T13:54:50;11.30;99.90
2523;DHT22;1272;53.332;9.860;2023-04-25T13:57:16;11.10;99.90
2523;DHT22;1272;53.332;9.860;2023-04-25T13:59:42;10.80;99.90
2523;DHT22;1272;53.332;9.860;2023-04-25T14:02:08;10.60;99.90
2523;DHT22;1272;53.332;9.860;2023-04-25T14:04:34;10.50;99.90
2523;DHT22;1272;53.332;9.860;2023-04-25T14:07:00;10.90;99.90
2523;DHT22;1272;53.332;9.860;2023-04-25T14:09:27;11.60;1.00
2523;DHT22;1272;53.332;9.860;2023-04-25T14:11:53;12.00;1.00
2523;DHT22;1272;53.332;9.860;2023-04-25T14:14:20;12.30;1.00
2523;DHT22;1272;53.332;9.860;2023-04-25T14:16:46;12.20;1.00
2523;DHT22;1272;53.332;9.860;2023-04-25T14:19:14;12.10;1.00
2523;DHT22;1272;53.332;9.860;2023-04-25T14:21:40;12.30;1.00
2523;DHT22;1272;53.332;9.860;2023-04-25T14:24:06;12.50;1.00
2523;DHT22;1272;53.332;9.860;2023-04-25T14:26:33;13.00;1.00
2523;DHT22;1272;53.332;9.860;2023-04-25T14:28:59;12.90;1.00
2523;DHT22;1272;53.332;9.860;2023-04-25T14:31:25;12.90;1.00
2523;DHT22;1272;53.332;9.860;2023-04-25T14:33:51;12.90;1.00
2523;DHT22;1272;53.332;9.860;2023-04-25T14:36:17;13.00;1.00
2523;DHT22;1272;53.332;9.860;2023-04-25T14:38:42;13.00;1.00
2523;DHT22;1272;53.332;9.860;2023-04-25T14:41:09;12.60;1.00
2523;DHT22;1272;53.332;9.860;2023-04-25T14:43:35;12.30;1.00
2523;DHT22;1272;53.332;9.860;2023-04-25T14:46:02;12.20;1.00
2523;DHT22;1272;53.332;9.860;2023-04-25T14:48:28;12.40;1.00
2523;DHT22;1272;53.332;9.860;2023-04-25T14:50:54;12.80;1.00
2523;DHT22;1272;53.332;9.860;2023-04-25T14:53:23;13.10;1.00
2523;DHT22;1272;53.332;9.860;2023-04-25T14:55:48;12.70;1.00
2523;DHT22;1272;53.332;9.860;2023-04-25T14:58:14;12.40;1.00
2523;DHT22;1272;53.332;9.860;2023-04-25T15:00:40;12.40;1.00
2523;DHT22;1272;53.332;9.860;2023-04-25T15:03:06;12.30;1.00
2523;DHT22;1272;53.332;9.860;2023-04-25T15:05:33;11.90;1.00
2523;DHT22;1272;53.332;9.860;2023-04-25T15:08:01;11.70;1.00
2523;DHT22;1272;53.332;9.860;2023-04-25T15:10:28;11.70;1.00
2523;DHT22;1272;53.332;9.860;2023-04-25T15:12:54;11.70;1.00
2523;DHT22;1272;53.332;9.860;2023-04-25T15:15:20;11.80;1.00
2523;DHT22;1272;53.332;9.860;2023-04-25T15:17:47;11.90;1.00
2523;DHT22;1272;53.332;9.860;2023-04-25T15:20:13;11.80;1.00
2523;DHT22;1272;53.332;9.860;2023-04-25T15:22:43;11.60;1.00
2523;DHT22;1272;53.332;9.860;2023-04-25T15:25:11;11.50;1.00
2523;DHT22;1272;53.332;9.860;2023-04-25T15:27:38;11.80;19.80
2523;DHT22;1272;53.332;9.860;2023-04-25T15:30:07;12.00;1.00
2523;DHT22;1272;53.332;9.860;2023-04-25T15:32:36;11.80;1.00
2523;DHT22;1272;53.332;9.860;2023-04-25T15:35:05;11.40;1.00
2523;DHT22;1272;53.332;9.860;2023-04-25T15:37:35;11.10;1.00
2523;DHT22;1272;53.332;9.860;2023-04-25T15:40:10;11.00;4.50
2523;DHT22;1272;53.332;9.860;2023-04-25T15:42:42;10.90;75.50
2523;DHT22;1272;53.332;9.860;2023-04-25T15:45:09;10.90;41.00
2523;DHT22;1272;53.332;9.860;2023-04-25T15:47:37;10.80;99.90
2523;DHT22;1272;53.332;9.860;2023-04-25T15:50:04;10.80;91.80
2523;DHT22;1272;53.332;9.860;2023-04-25T15:52:31;10.60;64.50
2523;DHT22;1272;53.332;9.860;2023-04-25T15:54:57;10.50;99.90
2523;DHT22;1272;53.332;9.860;2023-04-25T15:57:23;10.50;99.90
2523;DHT22;1272;53.332;9.860;2023-04-25T15:59:49;10.40;99.90
2523;DHT22;1272;53.332;9.860;2023-04-25T16:02:15;10.30;99.90
2523;DHT22;1272;53.332;9.860;2023-04-25T16:04:41;10.10;99.90
2523;DHT22;1272;53.332;9.860;2023-04-25T16:07:07;9.90;99.90
2523;DHT22;1272;53.332;9.860;2023-04-25T16:09:34;9.90;1.00
2523;DHT22;1272;53.332;9.860;2023-04-25T16:12:00;10.20;1.00
2523;DHT22;1272;53.332;9.860;2023-04-25T16:14:26;10.70;1.00
2523;DHT22;1272;53.332;9.860;2023-04-25T16:16:51;11.20;1.00
2523;DHT22;1272;53.332;9.860;2023-04-25T16:19:17;11.50;99.90
2523;DHT22;1272;53.332;9.860;2023-04-25T16:21:43;11.90;99.90